Nearby METAR Reports

 

KHOB - Hobbs, New Mexico, USA
Distance from station: S 40mi, 65km
Updated: Mon, 18-Oct-2021 6:50am MDT
Clear
Clear
 Wind from calm
Wind: Calm
Temperature: 46°F , 8°C
Dew Point: 34°F , 1°C
Humidity: 62%
Barometer: 30.04 inHg , 1017.3 hPa
Clouds: Clear
Visibility: 10 miles , 16 km
2021/10/18 12:50 KHOB 181250Z 00000KT 10SM SKC 08/01 A3004
KGNC - Seminole, Texas, USA
Distance from station: SE 55mi, 89km
Updated: Mon, 18-Oct-2021 7:35am MDT
Clear
Clear
 Wind from ESE
Wind: ESE 3 mph , 6 km/h
Temperature: 48°F , 9°C
Dew Point: 34°F , 1°C
Humidity: 58%
Barometer: 30.10 inHg , 1019.3 hPa
Clouds: Clear
Visibility: 10 miles , 16 km
2021/10/18 13:35 KGNC 181335Z AUTO 12003KT 10SM CLR 09/01 A3010 RMK AO2 T00930005
 
KROW - Roswell, New Mexico, USA
Distance from station: W 67mi, 108km
Updated: Mon, 18-Oct-2021 6:51am MDT
Clear
Clear
 Wind from calm
Wind: Calm
Temperature: 52°F , 11°C
Dew Point: 34°F , 1°C
Humidity: 50%
Barometer: 30.03 inHg , 1016.9 hPa
Clouds: Clear
Visibility: 10 miles , 16 km
2021/10/18 12:51 KROW 181251Z 00000KT 10SM CLR 11/01 A3003 RMK AO2 SLP128 T01110011
KATS - Artesia, New Mexico, USA
Distance from station: WSW 71mi, 114km
Updated: Mon, 18-Oct-2021 7:35am MDT
Clear
Clear
 Wind from calm
Wind: Calm
Temperature: 52°F , 11°C
Dew Point: 34°F , 1°C
Humidity: 50%
Barometer: 30.05 inHg , 1017.6 hPa
Clouds: Clear
Visibility: 10 miles , 16 km
2021/10/18 13:35 KATS 181335Z AUTO 00000KT 10SM CLR 11/01 A3005 RMK AO2
 
KCVS - Cannon AFB,Clovis, New Mexico, USA
Distance from station: 0 78mi, 125km
Updated: Mon, 18-Oct-2021 6:58am MDT
Mostly cloudy
Mostly cloudy
 Wind from calm
Wind: Calm
Temperature: 46°F , 8°C
Dew Point: 32°F , 0°C
Humidity: 57%
Barometer: 30.04 inHg , 1017.3 hPa
Clouds: Mostly cloudy
Visibility: 10 miles , 16 km
Cloud details: Mostly cloudy 16000 ft
2021/10/18 12:58 KCVS 181258Z 00000KT 10SM BKN160 08/M00 A3004 RMK AO2A SLP148 T00781002 $
KE11 - Andrews, Texas, USA
Distance from station: SE 78mi, 126km
Updated: Mon, 18-Oct-2021 7:35am MDT
Clear
Clear
 Wind from calm
Wind: Calm
Temperature: 50°F , 10°C
Dew Point: 34°F , 1°C
Humidity: 54%
Barometer: 30.05 inHg , 1017.6 hPa
Clouds: Clear
Visibility: 10 miles , 16 km
2021/10/18 13:35 KE11 181335Z AUTO 00000KT 10SM CLR 10/01 A3005 RMK AO2 T01040005
 
KCNM - Carlsbad, New Mexico, USA
Distance from station: SW 82mi, 132km
Updated: Mon, 18-Oct-2021 6:53am MDT
Clear
Clear
 Wind from SSE
Wind: SSE 5 mph , 7 km/h
Temperature: 54°F , 12°C
Dew Point: 34°F , 1°C
Humidity: 47%
Barometer: 30.01 inHg , 1016.3 hPa
Clouds: Clear
Visibility: 10 miles , 16 km
2021/10/18 12:53 KCNM 181253Z AUTO 16004KT 10SM CLR 12/01 A3001 RMK AO2 SLP129 T01170011
KCVN - Clovis Muni, New Mexico, USA
Distance from station: N 83mi, 133km
Updated: Mon, 18-Oct-2021 6:56am MDT
Clear
Clear
 Wind from SW
Wind: SW 7 mph , 11 km/h
Temperature: 45°F , 7°C
Wind Chill: 41°F , 5°C
Dew Point: 30°F , -1°C
Humidity: 57%
Barometer: 30.06 inHg , 1017.9 hPa
Clouds: Clear
Visibility: 10 miles , 16 km
2021/10/18 12:56 KCVN 181256Z AUTO 22006KT 10SM CLR 07/M01 A3006 RMK AO2 SLP167 T00671006
 
KLBB - Lubbock, Texas, USA
Distance from station: ENE 92mi, 149km
Updated: Mon, 18-Oct-2021 6:53am MDT
Mostly cloudy
Mostly cloudy
 Wind from SE
Wind: SE 5 mph , 7 km/h
Temperature: 46°F , 8°C
Wind Chill: 44°F , 7°C
Dew Point: 32°F , 0°C
Humidity: 57%
Barometer: 30.05 inHg , 1017.6 hPa
Clouds: Mostly cloudy
Visibility: 10 miles , 16 km
Cloud details: Few Clouds 16000 ft
Partly cloudy 20000 ft
Mostly cloudy 25000 ft
2021/10/18 12:53 KLBB 181253Z 14004KT 10SM FEW160 SCT200 BKN250 08/00 A3005 RMK AO2 SLP155 T00830000
KINK - Wink, Texas, USA
Distance from station: S 101mi, 163km
Updated: Mon, 18-Oct-2021 6:53am MDT
Clear
Clear
 Wind from SE
Wind: SE 9 mph , 15 km/h
Temperature: 55°F , 13°C
Dew Point: 34°F , 1°C
Humidity: 44%
Barometer: 30.01 inHg , 1016.3 hPa
Clouds: Clear
Visibility: 10 miles , 16 km
2021/10/18 12:53 KINK 181253Z AUTO 14008KT 10SM CLR 13/01 A3001 RMK AO2 SLP134 T01280011
 
KMAF - Midland, Texas, USA
Distance from station: SE 111mi, 179km
Updated: Mon, 18-Oct-2021 6:53am MDT
Clear
Clear
 Wind from SSE
Wind: SSE 9 mph , 15 km/h
Temperature: 54°F , 12°C
Dew Point: 34°F , 1°C
Humidity: 47%
Barometer: 30.04 inHg , 1017.3 hPa
Clouds: Clear
Visibility: 10 miles , 16 km
2021/10/18 12:53 KMAF 181253Z 16008KT 10SM CLR 12/01 A3004 RMK AO2 SLP147 T01170011
KSRR - Sierra B/Ruidoso, New Mexico, USA
Distance from station: W 127mi, 204km
Updated: Mon, 18-Oct-2021 7:35am MDT
Clear
Clear
 Wind from NNE
Wind: NNE 7 mph , 11 km/h
Temperature: 48°F , 9°C
Wind Chill: 45°F , 7°C
Dew Point: 37°F , 3°C
Humidity: 66%
Barometer: 30.15 inHg , 1021 hPa
Clouds: Clear
Visibility: 10 miles , 16 km
2021/10/18 13:35 KSRR 181335Z AUTO 02006KT 10SM CLR 09/03 A3015 RMK AO2
 
KGDP - Guadalupe Pass, Texas, USA
Distance from station: SW 130mi, 209km
Updated: Mon, 18-Oct-2021 6:51am MDT
Clear
Clear
 Wind from WSW
Wind: WSW 16 mph , 26 km/h
Temperature: 61°F , 16°C
Dew Point: 39°F , 4°C
Humidity: 45%
Barometer: 30.11 inHg , 1019.6 hPa
Clouds: Clear
Visibility: 10 miles , 16 km
2021/10/18 12:51 KGDP 181251Z AUTO 25014KT 10SM CLR 16/04 A3011 RMK AO2 SLP138 T01560039